createdAt,value
2018-01-28T00:02:26.119Z,8.45
2018-01-28T00:04:59.372Z,7.47
2018-01-28T00:07:30.642Z,10.35
2018-01-28T00:10:05.444Z,8.45
2018-01-28T00:12:41.012Z,9.48
2018-01-28T00:15:15.427Z,8.52
2018-01-28T00:17:48.981Z,7.37
2018-01-28T00:20:21.910Z,8.85
2018-01-28T00:22:59.065Z,6.62
2018-01-28T00:25:34.586Z,9.88
2018-01-28T00:28:09.502Z,6.37
2018-01-28T00:30:42.592Z,7.30
2018-01-28T00:33:15.007Z,7.95
2018-01-28T00:35:48.383Z,5.93
2018-01-28T00:38:20.618Z,7.68
2018-01-28T00:40:53.470Z,6.50
2018-01-28T00:43:39.926Z,8.15
2018-01-28T00:46:12.765Z,6.95
2018-01-28T00:48:47.463Z,8.35
2018-01-28T00:51:21.344Z,9.90
2018-01-28T00:53:54.461Z,5.85
2018-01-28T00:56:28.026Z,6.45
2018-01-28T00:59:00.209Z,6.85
2018-01-28T01:01:34.336Z,5.35
2018-01-28T01:04:06.786Z,6.87
2018-01-28T01:06:40.390Z,9.00
2018-01-28T01:09:11.923Z,6.85
2018-01-28T01:11:47.201Z,7.72
2018-01-28T01:14:19.083Z,6.95
2018-01-28T01:16:51.933Z,7.25
2018-01-28T01:19:28.634Z,6.68
2018-01-28T01:22:04.238Z,8.35
2018-01-28T01:24:43.221Z,6.68
2018-01-28T01:27:14.909Z,6.43
2018-01-28T01:29:47.918Z,7.62
2018-01-28T01:32:19.777Z,5.80
2018-01-28T01:34:52.198Z,7.87
2018-01-28T01:37:25.913Z,6.00
2018-01-28T01:39:57.342Z,7.57
2018-01-28T01:42:29.996Z,5.28
2018-01-28T01:45:02.961Z,4.90
2018-01-28T01:47:36.557Z,4.20
2018-01-28T01:50:08.165Z,6.47
2018-01-28T01:52:41.007Z,4.85
2018-01-28T01:55:13.468Z,4.43
2018-01-28T01:57:45.592Z,5.70
2018-01-28T02:00:17.898Z,6.10
2018-01-28T02:02:49.867Z,6.60
2018-01-28T02:05:22.029Z,4.37
2018-01-28T02:07:55.245Z,3.33
2018-01-28T02:10:27.824Z,4.10
2018-01-28T02:12:59.426Z,3.10
2018-01-28T02:15:31.732Z,3.77
2018-01-28T02:18:04.272Z,3.87
2018-01-28T02:20:37.757Z,2.77
2018-01-28T02:23:12.357Z,3.40
2018-01-28T02:25:45.471Z,2.95
2018-01-28T02:30:47.184Z,3.47
2018-01-28T02:33:20.454Z,2.23
2018-01-28T02:35:52.225Z,2.30
2018-01-28T02:38:26.354Z,2.47
2018-01-28T02:40:58.879Z,2.33
2018-01-28T02:43:32.086Z,2.75
2018-01-28T02:46:05.639Z,2.80
2018-01-28T02:48:38.109Z,2.43
2018-01-28T02:51:09.800Z,2.93
2018-01-28T02:53:43.398Z,3.13
2018-01-28T02:56:15.377Z,2.60
2018-01-28T02:58:46.608Z,2.17
2018-01-28T03:01:20.561Z,2.17
2018-01-28T03:03:54.339Z,2.20
2018-01-28T03:06:26.380Z,2.07
2018-01-28T03:08:58.129Z,2.40
2018-01-28T03:11:30.693Z,1.57
2018-01-28T03:14:02.542Z,1.60
2018-01-28T03:16:34.895Z,1.90
2018-01-28T03:19:07.534Z,1.97
2018-01-28T03:21:38.893Z,1.90
2018-01-28T03:24:10.601Z,1.60
2018-01-28T03:26:44.370Z,1.57
2018-01-28T03:29:16.864Z,1.20
2018-01-28T03:31:49.834Z,1.60
2018-01-28T03:34:23.046Z,1.40
2018-01-28T03:36:56.256Z,3.10
2018-01-28T03:39:32.287Z,1.40
2018-01-28T03:42:06.150Z,1.30
2018-01-28T03:44:37.856Z,1.37
2018-01-28T03:47:14.100Z,1.40
2018-01-28T03:49:46.322Z,1.43
2018-01-28T03:52:20.094Z,1.30
2018-01-28T03:54:52.927Z,1.47
2018-01-28T03:57:24.937Z,1.20
2018-01-28T03:59:57.323Z,1.30
2018-01-28T04:02:31.087Z,1.20
2018-01-28T04:05:02.891Z,1.00
2018-01-28T04:07:36.907Z,0.97
2018-01-28T04:10:12.019Z,1.20
2018-01-28T04:12:45.989Z,1.67
2018-01-28T04:15:17.866Z,1.10
2018-01-28T04:17:51.782Z,0.80
2018-01-28T04:20:24.377Z,1.13
2018-01-28T04:22:58.837Z,0.93
2018-01-28T04:25:33.222Z,0.80
2018-01-28T04:28:07.194Z,0.73
2018-01-28T04:30:39.829Z,1.17
2018-01-28T04:33:14.112Z,1.23
2018-01-28T04:35:46.199Z,1.70
2018-01-28T04:38:19.095Z,0.70
2018-01-28T04:40:52.034Z,0.70
2018-01-28T04:43:23.503Z,1.83
2018-01-28T04:45:56.508Z,1.10
2018-01-28T04:48:28.361Z,0.70
2018-01-28T04:51:02.443Z,0.70
2018-01-28T04:53:36.314Z,0.80
2018-01-28T04:56:08.465Z,0.73
2018-01-28T04:58:41.313Z,0.57
2018-01-28T05:01:13.839Z,1.43
2018-01-28T05:03:46.080Z,0.70
2018-01-28T05:06:19.075Z,0.50
2018-01-28T05:08:52.591Z,0.97
2018-01-28T05:11:26.572Z,0.70
2018-01-28T05:13:58.555Z,0.60
2018-01-28T05:16:32.209Z,0.70
2018-01-28T05:19:04.926Z,0.82
2018-01-28T05:21:37.880Z,0.60
2018-01-28T05:24:10.093Z,0.70
2018-01-28T05:26:43.197Z,0.50
2018-01-28T05:29:16.517Z,0.63
2018-01-28T05:31:50.013Z,0.63
2018-01-28T05:34:23.176Z,0.70
2018-01-28T05:36:55.905Z,0.60
2018-01-28T05:39:27.763Z,0.70
2018-01-28T05:42:00.165Z,0.70
2018-01-28T05:44:33.175Z,0.70
2018-01-28T05:47:06.052Z,0.50
2018-01-28T05:49:38.197Z,0.80
2018-01-28T05:52:09.702Z,0.53
2018-01-28T05:54:43.212Z,0.63
2018-01-28T05:57:15.133Z,1.80
2018-01-28T05:59:50.272Z,0.67
2018-01-28T06:02:24.173Z,0.80
2018-01-28T06:04:58.261Z,0.70
2018-01-28T06:07:30.961Z,0.80
2018-01-28T06:10:03.812Z,0.97
2018-01-28T06:12:37.222Z,0.70
2018-01-28T06:15:09.298Z,0.60
2018-01-28T06:17:42.177Z,0.60
2018-01-28T06:20:15.365Z,0.60
2018-01-28T06:22:49.354Z,0.60
2018-01-28T06:25:22.319Z,0.60
2018-01-28T06:27:54.435Z,0.50
2018-01-28T06:30:28.685Z,0.67
2018-01-28T06:33:01.140Z,0.70
2018-01-28T06:35:33.964Z,0.70
2018-01-28T06:38:05.738Z,0.70
2018-01-28T06:40:37.932Z,0.83
2018-01-28T06:43:11.852Z,2.73
2018-01-28T06:45:46.029Z,0.70
2018-01-28T06:48:17.325Z,0.60
2018-01-28T06:51:03.060Z,0.80
2018-01-28T06:53:36.174Z,0.80
2018-01-28T06:56:08.791Z,1.67
2018-01-28T06:58:42.344Z,0.77
2018-01-28T07:01:15.556Z,0.67
2018-01-28T07:03:48.558Z,0.83
2018-01-28T07:06:21.059Z,0.90
2018-01-28T07:08:53.255Z,0.70
2018-01-28T07:11:26.734Z,0.63
2018-01-28T07:14:01.441Z,0.87
2018-01-28T07:16:34.007Z,0.80
2018-01-28T07:19:07.463Z,0.70
2018-01-28T07:21:39.913Z,1.23
2018-01-28T07:24:13.012Z,0.80
2018-01-28T07:26:45.712Z,1.20
2018-01-28T07:29:17.999Z,0.80
2018-01-28T07:31:50.768Z,1.47
2018-01-28T07:34:24.045Z,2.30
2018-01-28T07:36:55.143Z,0.70
2018-01-28T07:39:27.175Z,1.60
2018-01-28T07:42:02.277Z,1.40
2018-01-28T07:44:36.086Z,1.53
2018-01-28T07:47:07.706Z,1.60
2018-01-28T07:49:39.999Z,1.67
2018-01-28T07:52:13.239Z,2.57
2018-01-28T07:54:47.128Z,1.20
2018-01-28T07:57:19.161Z,2.93
2018-01-28T07:59:51.139Z,1.13
2018-01-28T08:02:23.763Z,2.10
2018-01-28T08:04:56.770Z,1.10
2018-01-28T08:07:32.387Z,1.80
2018-01-28T08:10:05.783Z,1.97
2018-01-28T08:12:38.099Z,1.63
2018-01-28T08:15:13.622Z,0.93
2018-01-28T08:17:47.166Z,0.90
2018-01-28T08:20:18.831Z,1.07
2018-01-28T08:22:53.026Z,0.90
2018-01-28T08:25:24.727Z,1.23
2018-01-28T08:29:24.749Z,1.07
2018-01-28T08:31:58.838Z,0.87
2018-01-28T08:34:30.512Z,1.67
2018-01-28T08:37:03.948Z,1.50
2018-01-28T08:39:35.629Z,1.67
2018-01-28T08:42:08.000Z,2.33
2018-01-28T08:44:41.114Z,1.50
2018-01-28T08:47:12.150Z,3.67
2018-01-28T08:49:43.597Z,2.30
2018-01-28T08:52:15.050Z,2.07
2018-01-28T08:54:48.279Z,1.60
2018-01-28T08:57:21.853Z,2.47
2018-01-28T08:59:55.140Z,4.03
2018-01-28T09:02:31.016Z,2.70
2018-01-28T09:05:05.787Z,3.03
2018-01-28T09:07:37.943Z,3.07
2018-01-28T09:10:10.722Z,3.30
2018-01-28T09:12:44.173Z,2.23
2018-01-28T09:15:16.779Z,1.60
2018-01-28T09:17:50.166Z,2.13
2018-01-28T09:20:23.092Z,2.23
2018-01-28T09:22:56.286Z,6.53
2018-01-28T09:25:29.531Z,1.40
2018-01-28T09:28:05.274Z,1.27
2018-01-28T09:30:37.767Z,1.03
2018-01-28T09:33:10.219Z,1.43
2018-01-28T09:35:41.176Z,1.33
2018-01-28T09:38:15.475Z,1.03
2018-01-28T09:40:49.732Z,1.20
2018-01-28T09:43:22.445Z,1.67
2018-01-28T09:45:54.430Z,1.43
2018-01-28T09:48:26.914Z,2.13
2018-01-28T09:50:58.702Z,3.03
2018-01-28T09:53:34.180Z,1.57
2018-01-28T09:56:08.799Z,1.23
2018-01-28T09:58:40.612Z,1.27
2018-01-28T10:01:14.156Z,1.47
2018-01-28T10:03:45.960Z,1.13
2018-01-28T10:06:23.776Z,1.03
2018-01-28T10:08:56.826Z,1.77
2018-01-28T10:11:29.043Z,1.67
2018-01-28T10:14:02.148Z,1.60
2018-01-28T10:16:37.845Z,1.50
2018-01-28T10:19:12.800Z,1.60
2018-01-28T10:21:48.238Z,1.40
2018-01-28T10:24:20.684Z,1.20
2018-01-28T10:26:54.701Z,1.37
2018-01-28T10:29:27.687Z,1.67
2018-01-28T10:31:59.742Z,2.13
2018-01-28T10:34:31.552Z,3.40
2018-01-28T10:37:03.672Z,1.50
2018-01-28T10:39:36.662Z,1.67
2018-01-28T10:42:08.311Z,1.67
2018-01-28T10:44:41.399Z,3.43
2018-01-28T10:47:13.315Z,2.43
2018-01-28T10:49:45.719Z,2.90
2018-01-28T10:52:17.710Z,2.10
2018-01-28T10:54:48.983Z,2.37
2018-01-28T10:57:20.275Z,2.00
2018-01-28T10:59:52.279Z,2.07
2018-01-28T11:02:24.206Z,3.40
2018-01-28T11:04:56.709Z,2.77
2018-01-28T11:07:28.626Z,3.23
2018-01-28T11:10:01.776Z,2.50
2018-01-28T11:12:35.248Z,2.07
2018-01-28T11:15:08.609Z,1.83
2018-01-28T11:17:41.999Z,1.90
2018-01-28T11:20:15.980Z,2.63
2018-01-28T11:22:47.578Z,3.50
2018-01-28T11:25:18.998Z,1.80
2018-01-28T11:27:50.986Z,3.07
2018-01-28T11:30:24.536Z,2.00
2018-01-28T11:32:58.133Z,3.80
2018-01-28T11:35:30.171Z,4.80
2018-01-28T11:38:01.499Z,2.30
2018-01-28T11:40:33.520Z,2.33
2018-01-28T11:43:05.480Z,2.70
2018-01-28T11:45:37.780Z,2.47
2018-01-28T11:48:11.616Z,3.97
2018-01-28T11:50:43.502Z,5.13
2018-01-28T11:53:14.786Z,3.03
2018-01-28T11:55:49.663Z,2.47
2018-01-28T11:58:21.797Z,2.53
2018-01-28T12:00:53.821Z,2.87
2018-01-28T12:03:26.822Z,2.97
2018-01-28T12:05:59.914Z,5.87
2018-01-28T12:08:32.004Z,2.13
2018-01-28T12:11:06.130Z,3.57
2018-01-28T12:13:38.394Z,2.93
2018-01-28T12:16:12.844Z,5.07
2018-01-28T12:18:44.116Z,4.20
2018-01-28T12:21:17.617Z,2.03
2018-01-28T12:23:52.301Z,4.57
2018-01-28T12:26:24.830Z,2.27
2018-01-28T12:28:56.086Z,1.77
2018-01-28T12:31:28.390Z,2.17
2018-01-28T12:34:00.600Z,1.20
2018-01-28T12:36:31.935Z,1.50
2018-01-28T12:39:05.447Z,1.43
2018-01-28T12:41:37.389Z,1.63
2018-01-28T12:44:08.579Z,1.00
2018-01-28T12:46:41.411Z,1.03
2018-01-28T12:49:13.403Z,3.03
2018-01-28T12:51:46.527Z,4.53
2018-01-28T12:54:20.096Z,1.70
2018-01-28T12:56:52.132Z,3.50
2018-01-28T12:59:25.552Z,2.17
2018-01-28T13:01:58.889Z,2.10
2018-01-28T13:04:32.051Z,2.23
2018-01-28T13:07:05.388Z,1.77
2018-01-28T13:09:38.014Z,2.37
2018-01-28T13:12:11.558Z,2.10
2018-01-28T13:14:44.171Z,1.53
2018-01-28T13:17:18.067Z,2.50
2018-01-28T13:19:50.935Z,3.70
2018-01-28T13:22:24.362Z,2.10
2018-01-28T13:24:57.560Z,2.00
2018-01-28T13:27:28.911Z,1.97
2018-01-28T13:30:01.013Z,3.07
2018-01-28T13:32:34.495Z,3.03
2018-01-28T13:35:06.255Z,4.90
2018-01-28T13:37:38.152Z,2.47
2018-01-28T13:40:12.174Z,3.27
2018-01-28T13:42:45.915Z,2.50
2018-01-28T13:45:18.386Z,2.90
2018-01-28T13:47:51.930Z,2.90
2018-01-28T13:50:26.773Z,2.93
2018-01-28T13:52:59.505Z,2.73
2018-01-28T13:55:31.495Z,1.67
2018-01-28T13:58:04.450Z,2.87
2018-01-28T14:00:37.103Z,4.20
2018-01-28T14:03:10.311Z,2.53
2018-01-28T14:05:42.892Z,3.70
2018-01-28T14:08:20.707Z,3.90
2018-01-28T14:10:53.248Z,3.00
2018-01-28T14:13:29.386Z,4.37
2018-01-28T14:16:01.943Z,3.00
2018-01-28T14:18:34.227Z,2.40
2018-01-28T14:21:07.200Z,3.53
2018-01-28T14:23:38.667Z,1.97
2018-01-28T14:26:12.187Z,5.93
2018-01-28T14:28:44.402Z,5.27
2018-01-28T14:31:24.377Z,5.37
2018-01-28T14:34:09.685Z,2.83
2018-01-28T14:36:51.932Z,2.47
2018-01-28T14:39:26.044Z,3.70
2018-01-28T14:41:57.957Z,3.97
2018-01-28T14:44:31.957Z,2.67
2018-01-28T14:47:05.839Z,2.37
2018-01-28T14:49:39.548Z,1.70
2018-01-28T14:52:22.408Z,4.00
2018-01-28T14:54:53.983Z,4.77
2018-01-28T14:57:26.093Z,2.30
2018-01-28T14:59:59.784Z,3.70
2018-01-28T15:02:31.998Z,2.77
2018-01-28T15:05:05.387Z,2.83
2018-01-28T15:07:37.423Z,2.97
2018-01-28T15:10:08.942Z,4.77
2018-01-28T15:12:41.922Z,5.97
2018-01-28T15:15:17.105Z,3.00
2018-01-28T15:17:50.697Z,4.03
2018-01-28T15:20:23.914Z,3.37
2018-01-28T15:22:56.654Z,3.20
2018-01-28T15:25:28.333Z,4.03
2018-01-28T15:28:01.094Z,3.80
2018-01-28T15:30:36.064Z,6.47
2018-01-28T15:33:08.276Z,4.57
2018-01-28T15:35:40.779Z,4.00
2018-01-28T15:38:13.109Z,3.70
2018-01-28T15:40:46.212Z,2.97
2018-01-28T15:43:22.347Z,8.07
2018-01-28T15:45:54.691Z,3.10
2018-01-28T15:48:27.670Z,6.27
2018-01-28T15:51:00.625Z,2.67
2018-01-28T15:53:34.221Z,3.17
2018-01-28T15:56:06.139Z,5.23
2018-01-28T15:58:39.053Z,3.63
2018-01-28T16:01:10.812Z,2.67
2018-01-28T16:03:43.098Z,4.70
2018-01-28T16:06:14.662Z,3.47
2018-01-28T16:08:46.158Z,3.87
2018-01-28T16:11:18.009Z,2.73
2018-01-28T16:13:51.421Z,4.57
2018-01-28T16:16:23.544Z,4.30
2018-01-28T16:18:56.255Z,3.37
2018-01-28T16:21:28.501Z,4.17
2018-01-28T16:24:00.394Z,3.40
2018-01-28T16:26:33.335Z,1.60
2018-01-28T16:29:05.058Z,3.77
2018-01-28T16:31:36.867Z,2.83
2018-01-28T16:34:09.731Z,2.83
2018-01-28T16:36:41.829Z,2.67
2018-01-28T16:39:16.136Z,3.23
2018-01-28T16:41:48.573Z,2.10
2018-01-28T16:44:21.015Z,2.60
2018-01-28T16:46:52.211Z,2.00
2018-01-28T16:49:23.881Z,3.30
2018-01-28T16:51:56.624Z,2.33
2018-01-28T16:54:29.393Z,4.03
2018-01-28T16:58:20.811Z,5.40
2018-01-28T17:00:51.907Z,4.67
2018-01-28T17:03:24.232Z,8.87
2018-01-28T17:05:56.069Z,4.47
2018-01-28T17:08:29.097Z,4.97
2018-01-28T17:11:02.194Z,2.37
2018-01-28T17:13:34.244Z,2.83
2018-01-28T17:16:08.826Z,2.80
2018-01-28T17:18:42.359Z,8.37
2018-01-28T17:21:14.333Z,4.30
2018-01-28T17:23:47.100Z,4.43
2018-01-28T17:26:20.333Z,5.00
2018-01-28T17:28:52.778Z,3.53
2018-01-28T17:31:24.235Z,2.67
2018-01-28T17:33:55.181Z,2.73
2018-01-28T17:36:26.333Z,4.50
2018-01-28T17:38:57.353Z,2.87
2018-01-28T17:41:30.782Z,4.37
2018-01-28T17:44:02.269Z,4.27
2018-01-28T17:46:34.929Z,5.00
2018-01-28T17:49:07.791Z,3.67
2018-01-28T17:51:38.967Z,3.43
2018-01-28T17:54:11.782Z,4.50
2018-01-28T17:56:44.801Z,3.30
2018-01-28T17:59:17.302Z,3.53
2018-01-28T18:01:50.819Z,4.63
2018-01-28T18:04:24.817Z,5.23
2018-01-28T18:07:12.005Z,3.70
2018-01-28T18:09:44.907Z,4.57
2018-01-28T18:12:18.168Z,7.83
2018-01-28T18:14:53.700Z,4.43
2018-01-28T18:17:26.042Z,3.40
2018-01-28T18:19:57.428Z,4.13
2018-01-28T18:22:30.021Z,4.33
2018-01-28T18:25:03.982Z,5.70
2018-01-28T18:27:36.579Z,4.27
2018-01-28T18:30:10.581Z,3.10
2018-01-28T18:32:44.180Z,5.13
2018-01-28T18:35:16.800Z,4.57
2018-01-28T18:37:51.971Z,4.63
2018-01-28T18:40:25.994Z,4.30
2018-01-28T18:42:58.285Z,4.23
2018-01-28T18:45:30.772Z,5.63
2018-01-28T18:48:03.972Z,4.43
2018-01-28T18:50:38.519Z,4.03
2018-01-28T18:53:14.704Z,5.27
2018-01-28T18:55:46.547Z,10.17
2018-01-28T18:58:19.810Z,8.27
2018-01-28T19:00:51.461Z,4.67
2018-01-28T19:03:24.706Z,5.93
2018-01-28T19:05:57.840Z,5.67
2018-01-28T19:08:32.830Z,3.80
2018-01-28T19:11:04.891Z,6.90
2018-01-28T19:13:37.591Z,6.77
2018-01-28T19:16:09.381Z,4.60
2018-01-28T19:18:43.319Z,4.50
2018-01-28T19:21:14.774Z,3.50
2018-01-28T19:23:47.395Z,3.80
2018-01-28T19:26:20.314Z,4.27
2018-01-28T19:28:51.659Z,3.57
2018-01-28T19:31:23.802Z,3.63
2018-01-28T19:33:56.936Z,3.30
2018-01-28T19:36:28.953Z,3.60
2018-01-28T19:39:00.980Z,3.33
2018-01-28T19:41:34.649Z,3.07
2018-01-28T19:44:06.746Z,2.80
2018-01-28T19:46:39.794Z,3.53
2018-01-28T19:49:12.626Z,3.00
2018-01-28T19:51:45.545Z,2.83
2018-01-28T19:54:22.298Z,3.77
2018-01-28T19:56:55.580Z,3.33
2018-01-28T19:59:28.144Z,3.30
2018-01-28T20:02:00.834Z,2.90
2018-01-28T20:04:34.427Z,3.30
2018-01-28T20:07:07.447Z,2.40
2018-01-28T20:09:41.606Z,3.17
2018-01-28T20:12:15.782Z,2.40
2018-01-28T20:14:48.628Z,2.80
2018-01-28T20:17:20.318Z,2.60
2018-01-28T20:19:52.426Z,2.70
2018-01-28T20:22:25.913Z,3.00
2018-01-28T20:24:57.966Z,2.77
2018-01-28T20:27:31.329Z,2.70
2018-01-28T20:30:04.029Z,2.90
2018-01-28T20:32:39.349Z,2.80
2018-01-28T20:35:12.521Z,2.40
2018-01-28T20:37:43.671Z,2.60
2018-01-28T20:40:16.253Z,2.07
2018-01-28T20:42:48.862Z,2.73
2018-01-28T20:45:22.294Z,1.77
2018-01-28T20:47:56.433Z,2.20
2018-01-28T20:50:28.878Z,2.63
2018-01-28T20:53:03.376Z,3.37
2018-01-28T20:55:36.731Z,1.70
2018-01-28T20:58:09.838Z,2.10
2018-01-28T21:00:45.372Z,1.83
2018-01-28T21:03:19.909Z,1.87
2018-01-28T21:05:51.342Z,2.03
2018-01-28T21:08:23.911Z,2.33
2018-01-28T21:10:56.002Z,2.20
2018-01-28T21:13:31.899Z,2.53
2018-01-28T21:16:04.475Z,2.00
2018-01-28T21:18:36.463Z,2.03
2018-01-28T21:21:09.908Z,3.40
2018-01-28T21:23:41.725Z,1.97
2018-01-28T21:26:13.368Z,1.80
2018-01-28T21:28:44.727Z,2.27
2018-01-28T21:31:16.277Z,2.63
2018-01-28T21:33:50.994Z,1.87
2018-01-28T21:36:23.740Z,2.10
2018-01-28T21:38:56.834Z,2.97
2018-01-28T21:41:29.332Z,1.73
2018-01-28T21:44:03.471Z,2.27
2018-01-28T21:46:34.945Z,3.17
2018-01-28T21:49:07.206Z,2.30
2018-01-28T21:51:40.242Z,2.50
2018-01-28T21:54:13.038Z,2.20
2018-01-28T21:56:45.153Z,2.50
2018-01-28T21:59:20.459Z,2.57
2018-01-28T22:01:52.256Z,2.87
2018-01-28T22:04:24.698Z,3.57
2018-01-28T22:06:59.357Z,2.30
2018-01-28T22:09:33.964Z,2.67
2018-01-28T22:12:05.517Z,2.77
2018-01-28T22:14:39.442Z,3.67
2018-01-28T22:17:12.126Z,4.00
2018-01-28T22:19:45.408Z,2.30
2018-01-28T22:22:17.249Z,2.67
2018-01-28T22:24:49.867Z,2.83
2018-01-28T22:27:21.890Z,2.20
2018-01-28T22:29:54.768Z,2.20
2018-01-28T22:32:28.262Z,3.10
2018-01-28T22:34:59.565Z,2.07
2018-01-28T22:37:31.967Z,1.70
2018-01-28T22:41:23.292Z,2.80
2018-01-28T22:43:55.750Z,2.30
2018-01-28T22:46:28.513Z,2.30
2018-01-28T22:48:59.640Z,1.70
2018-01-28T22:51:32.862Z,2.27
2018-01-28T22:54:04.880Z,2.33
2018-01-28T22:56:38.713Z,1.80
2018-01-28T22:59:10.531Z,1.80
2018-01-28T23:01:42.898Z,2.00
2018-01-28T23:04:14.973Z,2.90
2018-01-28T23:06:46.840Z,1.80
2018-01-28T23:09:18.706Z,2.03
2018-01-28T23:11:50.345Z,1.83
2018-01-28T23:14:21.775Z,1.90
2018-01-28T23:16:56.314Z,2.23
2018-01-28T23:19:29.469Z,2.70
2018-01-28T23:22:01.634Z,1.43
2018-01-28T23:24:36.065Z,1.57
2018-01-28T23:27:07.767Z,2.43
2018-01-28T23:29:42.264Z,1.67
2018-01-28T23:32:15.154Z,1.17
2018-01-28T23:34:48.446Z,1.50
2018-01-28T23:37:19.865Z,1.57
2018-01-28T23:39:51.606Z,1.57
2018-01-28T23:42:24.108Z,1.40
2018-01-28T23:44:55.973Z,1.47
2018-01-28T23:47:27.865Z,1.33
2018-01-28T23:50:02.434Z,1.10
2018-01-28T23:52:34.639Z,1.47
2018-01-28T23:55:06.440Z,2.13
2018-01-28T23:57:40.140Z,2.13
